Stunt Ranch Reserve, Santa Monica Mtns, California Weather observations

Data are for 10 minute period ending at time listed.
 Day   Time   Solar   Ave.   Ave.  Ave.  Vector  Max.   Baro.   Total    
  of    of     Rad.   Air    Rel.  Wind   Wind   Wind  Press.  Precip.   
Year   Day            Temp.  Hum.  Speed  Dir.   Gust                    
2016   (PST)  Kw/m2    F      %     mph   deg.    mph    mb.     in.     
-------------------------------------------------------------------------
  40    9:10   0.41   76.1    18    0.5   351     1.6   976.0    0.00 
  40    9:20   0.44   76.8    15    0.4   284     1.5   976.0    0.00 
  40    9:30   0.47   78.4    15    1.0   279     1.9   976.0    0.00 
  40    9:40   0.50   78.4    16    0.5   266     1.7   976.0    0.00 
  40    9:50   0.52   79.3    15    0.9   292     2.0   976.0    0.00 
  40   10:00   0.55   78.6    16    1.5   286     2.9   975.6    0.00 
  40   10:10   0.57   80.6    15    1.2   284     2.6   975.6    0.00 
  40   10:20   0.59   80.7    15    1.9   284     2.9   975.6    0.00 
  40   10:30   0.61   80.3    15    1.0   302     2.8   975.6    0.00 
  40   10:40   0.62   81.8    14    1.3   305     3.7   975.6    0.00 
  40   10:50   0.64   83.1    14    1.9   345     5.6   975.6    0.00 
  40   11:00   0.65   82.2    14    1.4   356     3.2   975.6    0.00 
  40   11:10   0.67   81.7    14    1.4   213     3.4   975.6    0.00 
  40   11:20   0.67   82.6    14    1.4   292     4.3   975.3    0.00 
  40   11:30   0.69   84.9    14    4.0   319     8.4   975.3    0.00 
  40   11:40   0.69   85.0    13    2.6   308     6.9   975.3    0.00 
  40   11:50   0.70   85.1    13    1.7    17     5.3   975.3    0.00 
  40   12:00   0.70   85.4    13    3.5   338     8.6   974.9    0.00 
  40   12:10   0.70   83.9    12    4.4    66    10.1   974.9    0.00 
  40   12:20   0.70   84.4    11    2.1    64     7.5   974.6    0.00 
  40   12:30   0.70   84.6    11    4.8    72     9.2   974.6    0.00 
  40   12:40   0.69   84.7    11    2.8    45     8.8   974.3    0.00 
  40   12:50   0.69   86.3    11    2.5   357     8.7   973.9    0.00 
  40   13:00   0.68   87.3    11    4.5   320     9.6   973.9    0.00 
  40   13:10   0.67   86.5    11    4.1   333     9.0   973.9    0.00 
  40   13:20   0.62   86.0    11    3.9    30     9.3   973.6    0.00 
  40   13:30   0.64   85.6    11    4.3    21     8.0   973.6    0.00 
  40   13:40   0.63   85.4    11    4.6    44     8.0   973.3    0.00 
  40   13:50   0.61   84.7    10    6.0    68    11.2   973.3    0.00 
  40   14:00   0.59   85.5     9    3.3    28     6.3   973.3    0.00 
  40   14:10   0.57   86.7    10    3.2   331     8.6   973.3    0.00 
  40   14:20   0.55   87.2    10    2.6   342     6.3   973.3    0.00 
  40   14:30   0.53   86.2    11    3.1   358     7.5   973.3    0.00 
  40   14:40   0.51   85.9    11    5.3   323    10.9   973.3    0.00 
  40   14:50   0.48   86.0    11    4.6   330     8.0   973.3    0.00 
  40   15:00   0.46   86.5    10    3.2   325     7.7   973.3    0.00 
  40   15:10   0.43   85.8    10    3.6   341     8.6   973.3    0.00 
  40   15:20   0.40   86.3    10    2.4   313     6.1   973.3    0.00 
  40   15:30   0.37   86.4    11    4.0   324     9.2   973.3    0.00 
  40   15:40   0.34   85.6    11    2.9   336     7.4   973.3    0.00 
  40   15:50   0.30   84.5    14    2.6   320     8.0   973.3    0.00 
  40   16:00   0.27   83.6    12    3.5    13     7.8   973.6    0.00 
  40   16:10   0.24   82.2    12    5.0    35    11.4   973.6    0.00 
  40   16:20   0.20   81.4    12    6.1    53    14.2   973.3    0.00 
  40   16:30   0.14   80.7    13    4.8    33    10.4   973.3    0.00 
  40   16:40   0.09   80.0    13    5.7    55    10.7   973.3    0.00 
  40   16:50   0.04   79.5    14    4.5    67     9.3   972.9    0.00 
  40   17:00   0.02   78.3    14    4.7    79     8.9   972.6    0.00 
  40   17:10   0.01   78.1    14    4.9    94     9.9   972.6    0.00 
  40   17:20   0.01   77.8    14    3.0   118     6.1   972.6    0.00 
  40   17:30   0.01   76.2    15    2.6   110     6.9   972.6    0.00 
  40   17:40   0.00   76.1    15    7.2   130    11.8   972.6    0.00 
  40   17:50   0.00   76.6    14    7.2   120    12.1   972.6    0.00 
  40   18:00   0.00   76.3    14    7.2   107    12.1   972.6    0.00 
  40   18:10   0.00   76.4    14    6.1   103     9.9   972.6    0.00 
  40   18:20   0.00   75.7    14    4.9   105    10.2   972.6    0.00 
  40   18:30   0.00   75.1    15    4.7   138     9.9   972.6    0.00 
  40   18:40   0.00   73.6    16    3.9   182     6.3   972.9    0.00 
  40   18:50   0.00   72.8    16    3.1   177     6.5   973.3    0.00 
  40   19:00   0.00   72.1    17    1.0   192     2.8   973.3    0.00 
  40   19:10   0.00   71.5    17    2.0   245     3.8   973.6    0.00 
  40   19:20   0.00   71.2    17    0.8   211     2.2   973.9    0.00 
  40   19:30   0.00   69.6    19    2.5   178     3.9   973.9    0.00 
  40   19:40   0.00   70.2    18    2.0   240     3.8   973.9    0.00 
  40   19:50   0.00   69.3    20    2.1   230     3.2   973.9    0.00 
  40   20:00   0.00   68.4    20    2.7   233     3.7   973.9    0.00 
  40   20:10   0.00   68.9    20    3.3   229     4.6   974.3    0.00 
  40   20:20   0.00   69.0    20    2.8   232     3.9   974.3    0.00 
  40   20:30   0.00   68.3    20    1.7   239     3.5   974.3    0.00 
  40   20:40   0.00   68.3    20    0.9   239     1.5   974.3    0.00 
  40   20:50   0.00   67.1    21    2.4   165     3.6   974.6    0.00 
  40   21:00   0.00   66.8    21    2.0   155     3.5   974.3    0.00 
  40   21:10   0.00   67.7    20    1.1   236     2.9   974.3    0.00 
  40   21:20   0.00   68.5    19    0.9   159     2.3   974.6    0.00 
  40   21:30   0.00   68.1    20    3.6   136     5.6   974.3    0.00 
  40   21:40   0.00   68.0    19    6.8   138     9.8   973.9    0.00 
  40   21:50   0.00   71.3    16    2.2   183     7.2   974.3    0.00 
  40   22:00   0.00   68.9    19    2.9   107     6.6   974.6    0.00 
  40   22:10   0.00   67.3    19    1.7   216     3.1   974.3    0.00 
  40   22:20   0.00   67.8    19    1.1   188     2.9   974.3    0.00 
  40   22:30   0.00   67.8    18    0.8   162     3.1   974.3    0.00 
  40   22:40   0.00   65.8    21    0.9   199     2.6   974.3    0.00 
  40   22:50   0.00   66.8    19    0.8   261     2.7   974.3    0.00 
  40   23:00   0.00   67.2    19    0.9    52     1.8   974.6    0.00 
  40   23:10   0.00   67.2    19    1.0   261     2.4   974.6    0.00 
  40   23:20   0.00   65.9    20    2.8   160     4.2   974.6    0.00 
  40   23:30   0.00   65.5    20    2.5   163     4.0   974.6    0.00 
  40   23:40   0.00   65.5    20    3.0   152     4.5   974.6    0.00 
  40   23:50   0.00   66.5    20    1.0   154     4.0   974.6    0.00 
  41    0:00   0.00   64.2    21    2.4   190     5.0   974.6    0.00 
  41    0:10   0.00   66.8    18    1.0   277     2.6   974.6    0.00 
  41    0:20   0.00   67.4    18    1.2   254     4.5   974.6    0.00 
  41    0:30   0.00   67.1    18    1.6   246     3.7   974.6    0.00 
  41    0:40   0.00   66.7    19    0.3   264     1.2   974.9    0.00 
  41    0:50   0.00   65.7    20    1.1   196     2.8   974.9    0.00 
  41    1:00   0.00   65.6    20    2.1   148     3.9   974.6    0.00 
  41    1:10   0.00   66.5    19    1.1   161     2.3   974.6    0.00 
  41    1:20   0.00   66.8    19    1.5   123     4.2   974.6    0.00 
  41    1:30   0.00   66.1    19    2.0   261     2.9   974.6    0.00 
  41    1:40   0.00   66.1    19    0.8   266     3.0   974.6    0.00 
  41    1:50   0.00   66.7    18    0.9   190     2.6   974.3    0.00 
  41    2:00   0.00   67.1    18    1.2   220     3.1   974.3    0.00 
  41    2:10   0.00   66.9    18    1.0   230     2.5   974.3    0.00 
  41    2:20   0.00   66.1    19    0.5   216     2.9   974.3    0.00 
  41    2:30   0.00   65.4    20    1.6   225     3.9   974.3    0.00 
  41    2:40   0.00   65.9    19    1.2   281     2.4   974.3    0.00 
  41    2:50   0.00   65.4    20    1.1   315     2.6   974.3    0.00 
  41    3:00   0.00   64.3    20    0.9   135     2.6   974.3    0.00 
  41    3:10   0.00   65.2    19    1.2   234     2.1   974.3    0.00 
  41    3:20   0.00   65.2    20    0.7   282     1.5   974.3    0.00 
  41    3:30   0.00   64.8    20    1.0   215     2.1   974.3    0.00 
  41    3:40   0.00   64.5    20    0.5   255     1.5   974.3    0.00 
  41    3:50   0.00   65.0    20    0.2   238     1.0   974.3    0.00 
  41    4:00   0.00   65.1    20    0.5   272     1.8   974.3    0.00 
  41    4:10   0.00   64.9    20    0.6   171     1.5   974.3    0.00 
  41    4:20   0.00   64.9    20    1.0   275     2.4   974.3    0.00 
  41    4:30   0.00   65.0    20    2.1   199     3.4   974.3    0.00 
  41    4:40   0.00   64.2    21    1.0   232     2.1   974.3    0.00 
  41    4:50   0.00   64.9    20    1.2   265     3.1   974.3    0.00 
  41    5:00   0.00   65.1    20    2.8   218     4.1   974.3    0.00 
  41    5:10   0.00   64.9    20    1.6   252     3.0   974.3    0.00 
  41    5:20   0.00   64.9    20    0.7   176     2.8   974.6    0.00 
  41    5:30   0.00   64.4    20    1.1   222     2.3   974.6    0.00 
  41    5:40   0.00   65.0    19    1.4   203     3.0   974.6    0.00 
  41    5:50   0.00   65.0    19    0.5   229     2.3   974.3    0.00 
  41    6:00   0.00   64.9    19    0.6   147     2.0   974.6    0.00 
  41    6:10   0.00   65.1    19    0.6   236     2.3   974.6    0.00 
  41    6:20   0.00   65.1    19    1.6   143     2.7   974.6    0.00 
  41    6:30   0.00   65.7    18    1.2   258     2.6   974.6    0.00 
  41    6:40   0.00   65.9    18    0.8   230     2.2   974.6    0.00 
  41    6:50   0.00   65.6    18    2.9   156     6.1   974.3    0.00 
  41    7:00   0.01   65.4    18    1.3   262     3.8   974.6    0.00 
  41    7:10   0.01   64.2    20    0.6   158     2.1   974.9    0.00 
  41    7:20   0.01   64.5    20    2.1   163     4.4   974.9    0.00 
  41    7:30   0.01   64.6    20    2.8   164     4.6   974.6    0.00 
  41    7:40   0.02   64.5    21    3.5   153     7.2   974.9    0.00 
  41    7:50   0.05   64.0    22    4.2   144     7.2   974.9    0.00 
  41    8:00   0.19   67.9    19    3.6   129     6.3   974.9    0.00 
  41    8:10   0.22   69.0    20    2.0    95     4.7   974.9    0.00 
  41    8:20   0.26   69.6    21    3.0    90     5.4   975.3    0.00 
  41    8:30   0.30   69.6    23    0.9    89     2.4   975.6    0.00 
  41    8:40   0.33   71.3    20    0.6   290     1.3   975.6    0.00 
  41    8:50   0.35   74.0    21    0.5    46     1.5   975.6    0.00 
  41    9:00   0.39   75.6    18    0.9    70     2.6   975.6    0.00 

Return to Stunt Ranch Reserve graphs page.


Western Regional Climate Center,wrcc@dri.edu